Time;durP1;ratioP1;P1;durP2;ratioP2;P2;SDS_P1;SDS_P2;PMS_P1;PMS_P2;Temp;Humidity;BMP_temperature;BMP_pressure;BME280_temperature;BME280_humidity;BME280_pressure;Samples;Min_cycle;Max_cycle;Signal;HPM_P1;HPM_P2
2022/08/21 00:00:15;;;;;;;48.97;46.22;;;;;;;23.70;42.94;101611.03;5055070;28;20033;-73
2022/08/21 00:02:52;;;;;;;51.80;49.22;;;;;;;23.68;42.67;101605.03;5055972;28;20068;-73
2022/08/21 00:05:17;;;;;;;52.22;49.33;;;;;;;23.65;42.89;101609.22;5056203;28;20029;-74
2022/08/21 00:07:43;;;;;;;55.05;52.35;;;;;;;23.63;42.77;101602.38;5055024;28;20094;-74
2022/08/21 00:10:09;;;;;;;52.17;49.45;;;;;;;23.61;43.17;101594.44;5055767;28;20028;-74
2022/08/21 00:12:35;;;;;;;53.13;50.42;;;;;;;23.58;42.81;101599.72;5055367;28;20461;-74
2022/08/21 00:15:00;;;;;;;51.97;49.25;;;;;;;23.56;43.34;101597.28;5054844;28;20064;-73
2022/08/21 00:17:26;;;;;;;53.22;49.90;;;;;;;23.53;43.35;101598.72;5055486;28;20120;-74
2022/08/21 00:19:51;;;;;;;54.40;51.60;;;;;;;23.51;42.92;101598.22;5055328;28;20029;-74
2022/08/21 00:22:17;;;;;;;53.20;50.38;;;;;;;23.49;43.31;101580.38;5055290;28;20067;-74
2022/08/21 00:24:42;;;;;;;54.95;52.08;;;;;;;23.45;42.81;101577.38;5054939;28;20029;-74
2022/08/21 00:27:08;;;;;;;52.22;49.53;;;;;;;23.44;43.38;101583.22;5055425;28;20360;-73
2022/08/21 00:29:33;;;;;;;53.80;50.95;;;;;;;23.41;43.34;101578.31;5055211;28;20076;-75
2022/08/21 00:31:58;;;;;;;55.05;52.33;;;;;;;23.39;43.31;101573.13;5053786;28;20037;-74
2022/08/21 00:34:24;;;;;;;52.85;50.33;;;;;;;23.37;43.05;101574.56;5054200;28;20033;-74
2022/08/21 00:36:50;;;;;;;57.30;54.40;;;;;;;23.35;43.27;101576.81;5054953;28;20036;-79
2022/08/21 00:39:15;;;;;;;51.13;48.53;;;;;;;23.32;42.92;101576.28;5054715;28;20036;-74
2022/08/21 00:41:41;;;;;;;53.20;50.30;;;;;;;23.30;43.02;101572.22;5070139;28;20049;-74
2022/08/21 00:44:11;;;;;;;54.10;51.20;;;;;;;23.27;43.29;101578.34;5054581;28;20029;-73
2022/08/21 00:46:37;;;;;;;49.90;47.30;;;;;;;23.26;42.96;101582.25;5054567;28;20088;-75
2022/08/21 00:49:04;;;;;;;52.58;49.38;;;;;;;23.22;43.13;101576.50;5054502;28;20116;-74
2022/08/21 00:51:39;;;;;;;50.47;47.45;;;;;;;23.21;43.17;101577.66;5054501;28;20107;-73
2022/08/21 00:54:06;;;;;;;54.47;51.30;;;;;;;23.18;43.42;101578.25;5054890;28;20021;-74
2022/08/21 00:56:32;;;;;;;52.88;50.15;;;;;;;23.16;42.94;101580.50;5054355;28;20033;-75
2022/08/21 00:59:00;;;;;;;47.38;44.92;;;;;;;23.14;42.98;101581.94;5054607;28;20029;-74
2022/08/21 01:01:25;;;;;;;50.03;47.40;;;;;;;23.11;43.13;101578.66;5053589;28;20033;-74
2022/08/21 01:03:50;;;;;;;48.50;46.13;;;;;;;23.10;43.25;101567.94;5053938;28;20374;-74
2022/08/21 01:06:16;;;;;;;48.95;46.28;;;;;;;23.07;43.33;101574.88;5053142;28;20127;-74
2022/08/21 01:08:42;;;;;;;49.33;46.63;;;;;;;23.04;42.92;101570.00;5053876;28;20438;-76
2022/08/21 01:11:08;;;;;;;50.60;47.95;;;;;;;23.02;43.47;101566.72;5053755;28;20469;-74
2022/08/21 01:13:36;;;;;;;49.50;47.00;;;;;;;23.01;43.56;101573.38;5052768;28;20488;-75
2022/08/21 01:16:04;;;;;;;46.40;43.80;;;;;;;22.99;42.87;101563.78;5053505;28;20037;-74
2022/08/21 01:18:30;;;;;;;49.97;47.03;;;;;;;22.95;43.44;101569.03;5054341;28;20035;-75
2022/08/21 01:21:04;;;;;;;51.53;48.72;;;;;;;22.94;43.01;101561.91;5053594;28;20124;-75
2022/08/21 01:23:30;;;;;;;50.97;48.17;;;;;;;22.92;43.01;101561.41;5053954;28;20472;-76
2022/08/21 01:25:55;;;;;;;53.95;50.90;;;;;;;22.89;43.15;101568.34;5053811;28;20062;-74
2022/08/21 01:28:22;;;;;;;47.40;45.00;;;;;;;22.87;43.54;101564.25;5052350;28;20090;-75
2022/08/21 01:30:50;;;;;;;48.33;45.83;;;;;;;22.85;43.45;101563.75;5054552;28;20068;-73
2022/08/21 01:33:17;;;;;;;47.38;44.97;;;;;;;22.83;43.47;101574.25;5054372;28;20036;-73
2022/08/21 01:35:43;;;;;;;49.22;46.53;;;;;;;22.80;43.20;101572.91;5052359;28;20385;-75
2022/08/21 01:38:09;;;;;;;51.75;49.15;;;;;;;22.78;43.52;101580.69;5053658;28;20035;-75
2022/08/21 01:40:34;;;;;;;49.17;46.47;;;;;;;22.76;43.54;101574.66;5052705;28;20041;-74
2022/08/21 01:43:00;;;;;;;50.08;47.22;;;;;;;22.74;43.29;101579.66;5053509;28;20037;-73
2022/08/21 01:45:26;;;;;;;48.72;46.10;;;;;;;22.72;43.76;101579.13;5053549;28;20060;-75
2022/08/21 01:47:51;;;;;;;48.67;46.15;;;;;;;22.70;42.97;101573.09;5052498;28;20396;-74
2022/08/21 01:50:19;;;;;;;44.88;42.58;;;;;;;22.67;43.64;101573.72;5053714;28;20135;-74
2022/08/21 01:52:45;;;;;;;45.42;42.92;;;;;;;22.65;43.28;101573.22;5053396;28;20075;-74
2022/08/21 01:55:16;;;;;;;48.42;45.83;;;;;;;22.63;43.43;101570.78;5053428;28;20107;-73
2022/08/21 01:57:41;;;;;;;47.53;45.13;;;;;;;22.62;43.68;101571.06;5053461;28;20036;-74
2022/08/21 02:00:10;;;;;;;48.35;45.75;;;;;;;22.59;43.76;101577.19;5053051;28;20033;-73
2022/08/21 02:02:36;;;;;;;46.28;43.67;;;;;;;22.57;43.51;101576.66;5053029;28;20025;-73
2022/08/21 02:05:03;;;;;;;47.92;45.28;;;;;;;22.54;43.40;101563.50;5051803;28;20044;-74
2022/08/21 02:07:36;;;;;;;48.97;46.47;;;;;;;22.52;43.86;101569.31;5053307;28;20029;-74
2022/08/21 02:10:05;;;;;;;46.50;43.80;;;;;;;22.50;43.45;101571.53;5054034;28;20025;-73
2022/08/21 02:12:31;;;;;;;45.92;43.60;;;;;;;22.47;43.75;101566.66;5053221;28;20080;-75
2022/08/21 02:14:56;;;;;;;49.55;46.72;;;;;;;22.45;43.76;101563.38;5035960;28;20112;-75
2022/08/21 02:17:22;;;;;;;47.42;45.05;;;;;;;22.44;43.50;101564.50;5053053;28;20115;-77
2022/08/21 02:19:47;;;;;;;47.03;44.45;;;;;;;22.40;43.47;101567.06;5053206;28;20029;-79
2022/08/21 02:22:13;;;;;;;49.00;46.28;;;;;;;22.39;43.66;101567.34;5052211;28;20037;-78
2022/08/21 02:24:40;;;;;;;47.25;44.60;;;;;;;22.38;43.39;101563.00;5053019;28;20040;-78
2022/08/21 02:27:05;;;;;;;49.03;46.50;;;;;;;22.34;43.91;101564.69;5052807;28;20090;-78
2022/08/21 02:29:31;;;;;;;45.85;43.35;;;;;;;22.34;43.90;101561.94;5052750;28;20210;-77
2022/08/21 02:31:56;;;;;;;48.10;45.60;;;;;;;22.32;43.93;101561.44;5052792;28;20040;-78
2022/08/21 02:34:22;;;;;;;47.55;45.05;;;;;;;22.29;43.52;101557.34;5052540;28;20178;-78
2022/08/21 02:36:47;;;;;;;46.47;44.05;;;;;;;22.27;43.95;101554.06;5052775;28;20033;-78
2022/08/21 02:39:13;;;;;;;47.22;44.50;;;;;;;22.25;44.00;101556.31;5052729;28;20041;-79
2022/08/21 02:41:39;;;;;;;47.13;43.97;;;;;;;22.22;43.91;101549.47;5052767;28;20029;-78
2022/08/21 02:44:04;;;;;;;47.60;45.08;;;;;;;22.21;43.46;101547.84;5051754;28;20154;-77
2022/08/21 02:46:30;;;;;;;49.15;46.65;;;;;;;22.19;44.15;101546.47;5053001;28;20035;-77
2022/08/21 02:48:55;;;;;;;47.25;44.80;;;;;;;22.17;43.56;101552.28;5068147;28;20044;-79
2022/08/21 02:51:22;;;;;;;48.05;45.17;;;;;;;22.15;44.01;101548.19;5053373;28;20041;-80
2022/08/21 02:53:49;;;;;;;51.72;48.95;;;;;;;22.13;44.16;101544.94;5052501;28;20361;-78
2022/08/21 02:56:19;;;;;;;48.03;45.13;;;;;;;22.11;43.83;101547.19;5052297;28;20404;-79
2022/08/21 02:58:50;;;;;;;44.47;42.08;;;;;;;22.08;44.04;101545.84;5055653;28;20083;-79
2022/08/21 03:01:16;;;;;;;49.72;47.03;;;;;;;22.06;43.62;101545.31;5056323;28;20029;-79
2022/08/21 03:03:43;;;;;;;46.70;44.20;;;;;;;22.04;43.82;101544.81;5056313;28;20033;-80
2022/08/21 03:06:12;;;;;;;45.22;42.53;;;;;;;22.02;43.70;101539.63;5055708;28;20445;-79
2022/08/21 03:08:38;;;;;;;44.05;41.45;;;;;;;22.00;44.00;101541.84;5056058;28;20037;-79
2022/08/21 03:11:03;;;;;;;46.70;44.10;;;;;;;21.98;44.31;101541.31;5056415;28;20468;-77
2022/08/21 03:13:29;;;;;;;43.78;41.38;;;;;;;21.96;43.90;101543.56;5055908;28;20021;-78
2022/08/21 03:15:55;;;;;;;45.08;42.67;;;;;;;21.95;43.89;101535.63;5056207;28;20037;-78
2022/08/21 03:18:21;;;;;;;46.90;44.22;;;;;;;21.93;43.76;101535.09;5056035;28;20021;-78
2022/08/21 03:20:47;;;;;;;45.90;42.88;;;;;;;21.90;43.90;101533.75;5056351;28;20519;-78
2022/08/21 03:23:13;;;;;;;46.22;43.60;;;;;;;21.88;44.15;101527.75;5054691;28;20115;-80
2022/08/21 03:25:40;;;;;;;45.58;43.03;;;;;;;21.86;44.01;101535.47;5055850;28;20465;-78
2022/08/21 03:28:12;;;;;;;45.13;42.40;;;;;;;21.84;44.43;101534.94;5071466;28;20377;-77
2022/08/21 03:30:37;;;;;;;45.35;42.83;;;;;;;21.82;44.18;101528.94;5055410;28;20059;-78
2022/08/21 03:33:03;;;;;;;44.28;41.40;;;;;;;21.79;44.23;101533.09;5055731;28;20033;-78
2022/08/21 03:35:29;;;;;;;45.75;42.83;;;;;;;21.77;44.20;101526.25;5071187;28;20055;-78
2022/08/21 03:37:55;;;;;;;46.25;43.65;;;;;;;21.76;44.02;101524.63;5054641;28;20048;-78
2022/08/21 03:40:21;;;;;;;48.85;46.28;;;;;;;21.73;43.92;101523.31;5055859;28;20466;-78
2022/08/21 03:42:47;;;;;;;46.05;43.15;;;;;;;21.72;43.99;101515.34;5055612;28;20055;-78
2022/08/21 03:45:15;;;;;;;45.55;42.83;;;;;;;21.70;44.01;101520.34;5055211;28;20033;-79
2022/08/21 03:47:59;;;;;;;44.75;42.38;;;;;;;21.68;44.44;101517.06;5055720;28;20029;-79
2022/08/21 03:50:28;;;;;;;46.83;43.95;;;;;;;21.66;44.22;101520.09;5055485;28;20056;-78
2022/08/21 03:52:53;;;;;;;46.08;43.47;;;;;;;21.64;44.45;101513.28;5055397;28;20035;-78
2022/08/21 03:55:18;;;;;;;45.80;43.15;;;;;;;21.62;44.54;101516.34;5055209;28;20037;-77
2022/08/21 03:57:44;;;;;;;46.28;43.50;;;;;;;21.59;44.50;101512.22;5055803;28;20037;-79
2022/08/21 04:00:12;;;;;;;48.15;45.13;;;;;;;21.58;44.13;101507.84;5054044;28;20033;-79
2022/08/21 04:02:38;;;;;;;44.37;41.50;;;;;;;21.55;44.47;101511.22;5054951;28;20111;-79
2022/08/21 04:05:05;;;;;;;42.90;40.45;;;;;;;21.54;44.41;101514.25;5055650;28;20275;-80
2022/08/21 04:07:31;;;;;;;42.53;40.13;;;;;;;21.51;44.46;101518.41;5055212;28;20115;-79
2022/08/21 04:09:56;;;;;;;45.53;42.95;;;;;;;21.49;44.29;101523.38;5052980;28;20057;-79
2022/08/21 04:12:21;;;;;;;45.03;42.35;;;;;;;21.47;44.68;101528.38;5055216;28;20037;-79
2022/08/21 04:14:47;;;;;;;46.95;44.30;;;;;;;21.46;44.17;101534.16;5055286;28;20053;-79
2022/08/21 04:17:12;;;;;;;46.30;43.70;;;;;;;21.44;44.67;101541.88;5055135;28;20075;-79
2022/08/21 04:19:38;;;;;;;46.97;44.20;;;;;;;21.41;44.53;101543.28;5087582;28;20055;-78
2022/08/21 04:22:03;;;;;;;46.10;43.30;;;;;;;21.40;44.65;101538.91;5054812;28;20036;-79
2022/08/21 04:24:29;;;;;;;44.03;41.72;;;;;;;21.37;44.87;101540.28;5054579;28;20119;-78
2022/08/21 04:26:54;;;;;;;43.70;41.13;;;;;;;21.35;44.51;101542.53;5054641;28;20083;-79
2022/08/21 04:29:20;;;;;;;45.17;42.47;;;;;;;21.34;44.76;101546.41;5052940;28;20033;-78
2022/08/21 04:31:45;;;;;;;44.08;41.22;;;;;;;21.33;44.70;101536.50;5055193;28;20501;-79
2022/08/21 04:34:10;;;;;;;44.63;41.88;;;;;;;21.31;44.79;101541.47;5054682;28;20120;-79
2022/08/21 04:36:36;;;;;;;44.05;41.58;;;;;;;21.29;44.66;101538.22;5055084;28;20373;-80
2022/08/21 04:39:01;;;;;;;44.47;41.97;;;;;;;21.27;44.50;101539.59;5053256;28;20067;-78
2022/08/21 04:41:27;;;;;;;45.67;42.90;;;;;;;21.26;44.57;101540.72;5053721;28;20078;-78
2022/08/21 04:43:54;;;;;;;42.17;39.78;;;;;;;21.25;44.69;101539.09;5054136;28;20029;-78
2022/08/21 04:46:19;;;;;;;45.45;42.72;;;;;;;21.22;44.96;101546.00;5054376;28;20032;-75
2022/08/21 04:48:45;;;;;;;45.50;42.88;;;;;;;21.20;45.09;101539.97;5053044;28;20033;-79
2022/08/21 04:51:24;;;;;;;43.55;41.03;;;;;;;21.18;44.72;101544.94;5054675;28;20029;-73
2022/08/21 04:53:55;;;;;;;43.50;41.05;;;;;;;21.15;44.80;101534.56;5054121;28;20028;-77
2022/08/21 04:56:35;;;;;;;43.95;41.65;;;;;;;21.14;44.88;101538.41;5055677;28;20033;-80
2022/08/21 04:59:06;;;;;;;43.65;41.35;;;;;;;21.12;45.03;101543.38;5056691;28;20083;-79
2022/08/21 05:01:35;;;;;;;41.70;39.50;;;;;;;21.10;44.94;101546.41;5054664;28;20435;-80
2022/08/21 05:04:04;;;;;;;41.72;39.33;;;;;;;21.08;44.57;101548.63;5052714;28;20385;-79
2022/08/21 05:06:33;;;;;;;44.55;41.72;;;;;;;21.07;45.02;101540.72;5052698;28;20414;-79
2022/08/21 05:08:59;;;;;;;42.17;39.80;;;;;;;21.05;44.78;101548.41;5054316;28;20484;-80
2022/08/21 05:11:24;;;;;;;42.80;40.30;;;;;;;21.04;44.70;101550.34;5054528;28;20033;-80
2022/08/21 05:13:49;;;;;;;42.55;40.15;;;;;;;21.02;44.94;101551.75;5053898;28;20029;-81
2022/08/21 05:16:15;;;;;;;41.63;39.30;;;;;;;21.01;45.00;101555.59;5053698;28;20040;-80
2022/08/21 05:18:41;;;;;;;43.25;40.72;;;;;;;20.99;44.89;101550.41;5052864;28;20405;-79
2022/08/21 05:21:07;;;;;;;43.30;40.45;;;;;;;20.97;44.86;101552.63;5053305;28;20111;-79
2022/08/21 05:23:32;;;;;;;42.58;39.72;;;;;;;20.96;44.90;101556.47;5053370;28;20059;-80
2022/08/21 05:25:58;;;;;;;42.63;40.17;;;;;;;20.94;45.16;101565.03;5052275;28;20055;-80
2022/08/21 05:28:23;;;;;;;43.03;40.25;;;;;;;20.93;44.86;101565.31;5053550;28;20067;-80
2022/08/21 05:30:49;;;;;;;42.05;39.13;;;;;;;20.90;45.15;101569.47;5052379;28;20057;-79
2022/08/21 05:33:14;;;;;;;41.03;38.90;;;;;;;20.90;45.47;101568.66;5053098;28;20054;-75
2022/08/21 05:35:40;;;;;;;41.67;39.22;;;;;;;20.88;45.17;101571.66;5053519;28;20417;-80
2022/08/21 05:38:06;;;;;;;41.78;39.08;;;;;;;20.86;45.50;101573.88;5053637;28;20033;-80
2022/08/21 05:40:32;;;;;;;41.75;39.05;;;;;;;20.84;45.05;101570.63;5053043;28;20112;-80
2022/08/21 05:42:58;;;;;;;41.53;39.38;;;;;;;20.83;45.38;101568.97;5053705;28;20064;-78
2022/08/21 05:45:28;;;;;;;41.30;38.80;;;;;;;20.81;45.19;101567.63;5053306;28;20055;-80
2022/08/21 05:47:54;;;;;;;40.45;38.13;;;;;;;20.80;45.33;101566.00;5053256;28;20499;-80
2022/08/21 05:50:20;;;;;;;41.03;38.25;;;;;;;20.79;45.37;101567.94;5051998;28;20120;-79
2022/08/21 05:52:45;;;;;;;42.35;39.72;;;;;;;20.78;45.51;101562.75;5053105;28;20119;-78
2022/08/21 05:55:11;;;;;;;40.15;37.60;;;;;;;20.77;45.66;101570.16;5052946;28;20041;-77
2022/08/21 05:57:36;;;;;;;41.70;39.40;;;;;;;20.76;45.53;101574.00;5053064;28;20033;-79
2022/08/21 06:00:03;;;;;;;41.05;38.72;;;;;;;20.75;45.50;101570.44;5053100;28;20044;-78
2022/08/21 06:02:28;;;;;;;43.67;41.20;;;;;;;20.74;45.55;101560.56;5053098;28;20037;-78
2022/08/21 06:04:56;;;;;;;40.15;37.85;;;;;;;20.74;45.88;101559.78;5051816;28;20044;-76
2022/08/21 06:07:22;;;;;;;43.00;39.17;;;;;;;20.72;45.78;101559.25;5053464;28;20479;-79
2022/08/21 06:09:47;;;;;;;40.08;37.63;;;;;;;20.72;46.01;101560.03;5052951;28;20025;-78
2022/08/21 06:12:13;;;;;;;41.92;39.50;;;;;;;20.71;45.82;101563.06;5053061;28;20025;-79
2022/08/21 06:14:40;;;;;;;39.47;37.35;;;;;;;20.70;46.00;101564.19;5052794;28;20044;-78
2022/08/21 06:17:13;;;;;;;40.03;37.42;;;;;;;20.69;46.04;101563.38;5051550;28;20499;-79
2022/08/21 06:19:39;;;;;;;41.03;38.45;;;;;;;20.70;46.00;101561.44;5053353;28;20115;-79
2022/08/21 06:22:05;;;;;;;40.30;37.72;;;;;;;20.69;45.94;101563.38;5052887;28;20429;-78
2022/08/21 06:24:30;;;;;;;42.67;40.08;;;;;;;20.69;46.34;101560.63;5051310;28;20114;-78
2022/08/21 06:26:56;;;;;;;40.67;38.13;;;;;;;20.70;46.35;101556.78;5052535;28;20060;-79
2022/08/21 06:29:22;;;;;;;42.08;39.58;;;;;;;20.70;45.98;101567.75;5052987;28;20120;-79
2022/08/21 06:31:50;;;;;;;41.20;38.65;;;;;;;20.69;46.34;101566.13;5052606;28;20072;-80
2022/08/21 06:34:16;;;;;;;41.42;38.90;;;;;;;20.70;46.34;101569.69;5056172;28;20029;-78
2022/08/21 06:36:41;;;;;;;40.67;38.30;;;;;;;20.70;46.63;101575.19;5056748;28;20029;-79
2022/08/21 06:39:07;;;;;;;43.30;40.92;;;;;;;20.69;46.67;101579.84;5056500;28;20029;-78
2022/08/21 06:41:32;;;;;;;42.97;39.35;;;;;;;20.70;47.08;101580.66;5056776;28;20021;-78
2022/08/21 06:43:58;;;;;;;40.13;37.63;;;;;;;20.70;47.01;101573.25;5055496;28;20059;-79
2022/08/21 06:46:25;;;;;;;44.20;41.13;;;;;;;20.70;47.28;101570.50;5055086;28;20052;-79
2022/08/21 06:48:50;;;;;;;41.05;38.75;;;;;;;20.71;47.35;101574.06;5056582;28;20083;-78
2022/08/21 06:51:15;;;;;;;43.00;40.38;;;;;;;20.73;47.27;101571.84;5056233;28;20035;-79
2022/08/21 06:53:41;;;;;;;41.55;39.03;;;;;;;20.72;47.37;101571.03;5056861;28;20044;-78
2022/08/21 06:56:06;;;;;;;41.60;39.15;;;;;;;20.74;47.29;101563.31;5055326;28;20033;-78
2022/08/21 06:58:32;;;;;;;43.88;41.13;;;;;;;20.74;47.56;101566.06;5056077;28;20033;-79
2022/08/21 07:00:57;;;;;;;40.88;38.28;;;;;;;20.76;47.50;101563.00;5055005;28;20067;-78
2022/08/21 07:03:29;;;;;;;39.40;37.20;;;;;;;20.77;47.91;101561.94;5056317;28;20064;-78
2022/08/21 07:05:56;;;;;;;41.58;38.63;;;;;;;20.78;48.00;101560.81;5056555;28;20037;-80
2022/08/21 07:08:22;;;;;;;41.25;38.22;;;;;;;20.81;47.91;101559.41;5056109;28;20080;-75
2022/08/21 07:10:48;;;;;;;41.30;38.22;;;;;;;20.84;47.46;101558.81;5056512;28;20114;-79
2022/08/21 07:13:14;;;;;;;39.25;36.97;;;;;;;20.88;47.64;101565.38;5056853;28;20120;-79
2022/08/21 07:15:40;;;;;;;42.78;40.03;;;;;;;20.90;47.60;101568.66;5056128;28;20540;-78
2022/08/21 07:18:06;;;;;;;40.80;38.50;;;;;;;20.92;48.04;101564.50;5056631;28;20492;-78
2022/08/21 07:20:32;;;;;;;42.65;39.92;;;;;;;20.95;48.00;101566.66;5056185;28;20052;-79
2022/08/21 07:23:00;;;;;;;41.65;38.72;;;;;;;20.98;48.04;101569.94;5055995;28;20037;-78
2022/08/21 07:25:26;;;;;;;40.30;37.88;;;;;;;21.00;48.30;101567.72;5056071;28;20106;-78
2022/08/21 07:27:52;;;;;;;41.72;38.83;;;;;;;21.02;48.06;101568.25;5055904;28;20465;-79
2022/08/21 07:30:18;;;;;;;43.13;40.47;;;;;;;21.03;48.01;101567.13;5054254;28;20481;-80
2022/08/21 07:32:43;;;;;;;43.72;41.05;;;;;;;21.03;48.23;101556.94;5055559;28;20511;-79
2022/08/21 07:35:09;;;;;;;42.83;39.60;;;;;;;21.06;48.64;101572.00;5054554;28;20039;-79
2022/08/21 07:37:34;;;;;;;43.58;40.42;;;;;;;21.07;48.58;101571.75;5055680;28;20033;-79
2022/08/21 07:40:00;;;;;;;41.25;38.33;;;;;;;21.09;48.86;101572.25;5055124;28;20072;-81
2022/08/21 07:42:25;;;;;;;44.22;41.22;;;;;;;21.12;48.92;101577.16;5056518;28;20043;-79
2022/08/21 07:44:51;;;;;;;41.72;39.15;;;;;;;21.15;49.24;101576.56;5054567;28;20040;-78
2022/08/21 07:47:16;;;;;;;44.65;41.75;;;;;;;21.19;48.94;101582.28;5056041;28;20024;-79
2022/08/21 07:49:42;;;;;;;43.42;40.58;;;;;;;21.23;49.19;101583.34;5054378;28;20540;-78
2022/08/21 07:52:07;;;;;;;43.00;40.28;;;;;;;21.27;49.06;101573.41;5055900;28;20035;-79
2022/08/21 07:54:33;;;;;;;43.13;40.42;;;;;;;21.31;49.55;101568.13;5056011;28;20032;-79
2022/08/21 07:56:58;;;;;;;42.17;39.65;;;;;;;21.36;49.23;101570.81;5055315;28;20032;-80
2022/08/21 07:59:24;;;;;;;41.00;38.67;;;;;;;21.40;49.45;101566.41;5055363;28;20036;-79
2022/08/21 08:01:49;;;;;;;43.97;41.35;;;;;;;21.45;49.67;101569.09;5055430;28;20036;-79
2022/08/21 08:04:15;;;;;;;46.08;43.15;;;;;;;21.51;49.80;101561.56;5054010;28;20029;-78
2022/08/21 08:06:40;;;;;;;44.00;41.42;;;;;;;21.55;49.33;101566.19;5055452;28;20044;-79
2022/08/21 08:09:06;;;;;;;42.92;40.35;;;;;;;21.61;49.62;101564.19;5054568;28;20033;-77
2022/08/21 08:11:31;;;;;;;42.83;40.35;;;;;;;21.67;49.25;101565.75;5054275;28;20043;-78
2022/08/21 08:13:59;;;;;;;44.05;40.50;;;;;;;21.73;49.26;101561.00;5053806;28;20533;-78
2022/08/21 08:16:25;;;;;;;42.03;39.90;;;;;;;21.79;49.29;101557.84;5056330;28;20125;-79
2022/08/21 08:18:51;;;;;;;40.83;38.55;;;;;;;21.86;49.38;101562.97;5054060;28;20025;-78
2022/08/21 08:21:20;;;;;;;44.65;41.53;;;;;;;21.93;49.50;101557.91;5071065;28;20106;-78
2022/08/21 08:23:46;;;;;;;44.92;42.28;;;;;;;22.01;49.54;101556.41;5054139;28;20033;-78
2022/08/21 08:26:12;;;;;;;43.80;41.10;;;;;;;22.08;49.20;101553.28;5055521;28;20032;-77
2022/08/21 08:28:37;;;;;;;45.20;42.80;;;;;;;22.16;49.47;101556.16;5055227;28;20033;-78
2022/08/21 08:31:03;;;;;;;43.80;41.05;;;;;;;22.22;49.63;101560.47;5054606;28;20064;-78
2022/08/21 08:33:29;;;;;;;47.28;44.58;;;;;;;22.31;49.67;101568.06;5036937;28;20376;-74
2022/08/21 08:35:55;;;;;;;46.67;43.78;;;;;;;22.37;49.27;101559.38;5054384;28;20537;-78
2022/08/21 08:38:22;;;;;;;45.83;42.90;;;;;;;22.45;49.46;101549.63;5054551;28;20033;-76
2022/08/21 08:41:01;;;;;;;48.92;45.78;;;;;;;22.55;49.66;101552.19;5053270;28;20480;-78
2022/08/21 08:43:32;;;;;;;47.47;44.10;;;;;;;22.63;49.51;101548.75;5055110;28;20040;-75
2022/08/21 08:46:03;;;;;;;47.33;44.08;;;;;;;22.71;49.43;101549.16;5053420;28;20021;-77
2022/08/21 08:48:38;;;;;;;46.55;43.42;;;;;;;22.80;49.32;101548.13;5055283;28;20087;-77
2022/08/21 08:51:11;;;;;;;47.50;44.85;;;;;;;22.89;48.98;101540.78;5054404;28;20032;-78
2022/08/21 08:53:47;;;;;;;50.15;47.00;;;;;;;22.98;49.34;101540.94;5054702;28;20041;-76
2022/08/21 08:56:13;;;;;;;50.60;47.63;;;;;;;23.05;49.12;101538.56;5053888;28;20099;-77
2022/08/21 08:58:43;;;;;;;52.80;49.63;;;;;;;23.14;48.62;101540.59;5054726;28;20381;-77
2022/08/21 09:01:16;;;;;;;51.00;47.80;;;;;;;23.22;48.98;101545.38;5054548;28;20032;-77
2022/08/21 09:03:42;;;;;;;52.78;49.88;;;;;;;23.29;48.97;101537.50;5054181;28;20385;-77
2022/08/21 09:06:24;;;;;;;51.03;47.90;;;;;;;23.40;48.85;101540.84;5053254;28;20040;-78
2022/08/21 09:09:16;;;;;;;50.17;47.30;;;;;;;23.48;48.80;101529.88;5054330;28;20029;-77
2022/08/21 09:11:52;;;;;;;51.03;47.95;;;;;;;23.56;48.39;101528.34;5054018;28;20029;-77
2022/08/21 09:14:41;;;;;;;50.40;47.22;;;;;;;23.64;48.33;101522.09;5054431;28;20029;-77
2022/08/21 09:17:25;;;;;;;54.55;51.38;;;;;;;23.72;48.66;101526.03;5086611;28;20032;-77
2022/08/21 09:20:17;;;;;;;53.53;50.67;;;;;;;23.80;48.18;101521.75;5053937;28;20040;-77
2022/08/21 09:22:58;;;;;;;56.63;53.60;;;;;;;23.88;48.28;101526.50;5053782;28;20033;-77
2022/08/21 09:25:32;;;;;;;53.63;50.60;;;;;;;23.94;48.47;101534.34;5052069;28;20029;-77
2022/08/21 09:27:57;;;;;;;51.45;48.58;;;;;;;23.99;47.88;101538.94;5054408;28;20516;-77
2022/08/21 09:30:30;;;;;;;55.25;52.13;;;;;;;24.06;47.89;101532.97;5053295;28;20087;-76
2022/08/21 09:32:56;;;;;;;55.00;52.13;;;;;;;24.11;47.76;101522.59;5053081;28;20307;-77
2022/08/21 09:35:24;;;;;;;52.70;49.85;;;;;;;24.17;47.97;101526.88;5053444;28;20032;-77
2022/08/21 09:37:56;;;;;;;52.95;49.95;;;;;;;24.24;47.75;101528.34;5053390;28;20099;-78
2022/08/21 09:40:40;;;;;;;53.05;49.88;;;;;;;24.30;47.48;101535.38;5053451;28;20033;-77
2022/08/21 09:43:17;;;;;;;54.50;51.58;;;;;;;24.34;47.49;101542.72;5053700;28;20120;-77
2022/08/21 09:45:45;;;;;;;54.73;51.80;;;;;;;24.39;47.51;101539.81;5053415;28;20469;-78
2022/08/21 09:48:12;;;;;;;53.97;51.00;;;;;;;24.44;46.81;101540.81;5053463;28;20103;-78
2022/08/21 09:50:38;;;;;;;52.63;49.63;;;;;;;24.48;47.24;101537.13;5053050;28;20393;-77
2022/08/21 09:53:04;;;;;;;55.75;52.67;;;;;;;24.53;46.88;101536.19;5052300;28;20071;-78
2022/08/21 09:58:31;;;;;;;55.80;52.35;;;;;;;24.63;46.38;101527.59;5053860;28;20534;-79
2022/08/21 10:01:02;;;;;;;56.97;54.05;;;;;;;24.68;46.49;101538.50;5053328;28;20033;-78
2022/08/21 10:03:28;;;;;;;52.75;50.10;;;;;;;24.72;46.38;101530.38;5052826;28;20440;-78
2022/08/21 10:06:01;;;;;;;57.38;54.30;;;;;;;24.76;46.00;101528.63;5051577;28;20063;-78
2022/08/21 10:08:28;;;;;;;54.65;51.92;;;;;;;24.80;45.89;101532.38;5052946;28;20028;-78
2022/08/21 10:11:00;;;;;;;59.90;57.10;;;;;;;24.84;46.02;101525.06;5052945;28;20039;-77
2022/08/21 10:13:26;;;;;;;56.15;52.83;;;;;;;24.88;46.13;101528.84;5053078;28;20025;-76
2022/08/21 10:16:00;;;;;;;58.80;56.00;;;;;;;24.91;45.67;101524.63;5053365;28;20543;-78
2022/08/21 10:18:35;;;;;;;58.03;55.05;;;;;;;24.94;45.59;101524.78;5052180;28;20040;-77
2022/08/21 10:21:08;;;;;;;55.80;52.92;;;;;;;24.97;45.86;101529.69;5052216;28;20029;-77
2022/08/21 10:23:33;;;;;;;55.63;52.58;;;;;;;25.01;45.89;101527.06;5053074;28;20028;-77
2022/08/21 10:26:13;;;;;;;57.92;54.55;;;;;;;25.04;45.50;101516.19;5052464;28;20156;-77
2022/08/21 10:29:15;;;;;;;55.97;52.85;;;;;;;25.08;45.86;101519.13;5052362;28;20021;-76
2022/08/21 10:32:04;;;;;;;61.28;58.17;;;;;;;25.11;45.27;101520.44;5051930;28;20048;-75
2022/08/21 10:34:41;;;;;;;56.97;54.08;;;;;;;25.15;45.68;101521.41;5052894;28;20120;-77
2022/08/21 10:37:19;;;;;;;57.92;55.03;;;;;;;25.17;45.49;101525.50;5051890;28;20455;-76
2022/08/21 10:40:30;;;;;;;55.83;53.00;;;;;;;25.19;45.40;101526.00;5052562;28;20079;-77
2022/08/21 10:43:00;;;;;;;61.53;57.83;;;;;;;25.22;45.13;101528.13;5028940;28;20091;-77
2022/08/21 10:45:44;;;;;;;56.90;53.70;;;;;;;25.25;44.84;101523.91;5085196;28;20071;-75
2022/08/21 10:48:21;;;;;;;57.35;54.15;;;;;;;25.28;45.02;101519.69;5085337;28;20037;-77
2022/08/21 10:51:19;;;;;;;61.47;58.40;;;;;;;25.30;44.54;101520.16;5051632;28;20025;-76
2022/08/21 10:54:12;;;;;;;55.45;52.58;;;;;;;25.33;44.65;101514.00;5032730;28;20295;-77
2022/08/21 10:56:40;;;;;;;60.53;57.40;;;;;;;25.36;44.62;101514.16;5052718;28;20465;-77
2022/08/21 10:59:30;;;;;;;56.05;53.15;;;;;;;25.37;44.72;101510.22;5052992;28;20453;-77
2022/08/21 11:02:02;;;;;;;59.60;56.28;;;;;;;25.40;44.42;101522.59;5052280;28;20465;-76
2022/08/21 11:04:36;;;;;;;57.60;54.70;;;;;;;25.42;44.04;101512.84;5053126;28;20029;-77
2022/08/21 11:07:32;;;;;;;55.25;52.65;;;;;;;25.46;45.23;101516.59;5052659;28;20154;-76
2022/08/21 11:10:05;;;;;;;58.47;55.00;;;;;;;25.45;44.73;101512.22;5051468;28;20107;-76
2022/08/21 11:12:58;;;;;;;61.22;57.92;;;;;;;25.48;44.51;101517.09;5051364;28;20025;-77
2022/08/21 11:15:47;;;;;;;57.05;54.10;;;;;;;25.52;43.65;101508.13;5046419;28;20476;-76
2022/08/21 11:18:32;;;;;;;56.75;53.72;;;;;;;25.55;44.14;101516.63;5053046;28;20461;-76